Wetterdaten: Woche 07.11.11 - 13.11.11 (KW45)
Datum Zeit Temperatur Luftfeuchte Luftdruck Niederschlag Windrichtung Sonnenschein Solar Wind
07.11.2011 00:00 6,7 C 98 % 1011,3 hPa 0,0 l/m N-NO 0,00 h 0 W/m 5,6 km/h (1 Bft)
07.11.2011 01:00 7,2 C 99 % 1011,3 hPa 0,0 l/m NO 0,00 h 0 W/m 5,1 km/h (1 Bft)
07.11.2011 02:00 7,5 C 99 % 1011,7 hPa 0,0 l/m NO 0,00 h 0 W/m 5,5 km/h (1 Bft)
07.11.2011 03:00 7,6 C 99 % 1012,0 hPa 0,0 l/m NO 0,00 h 0 W/m 3,2 km/h (1 Bft)
07.11.2011 04:00 7,5 C 99 % 1012,1 hPa 0,0 l/m N 0,00 h 0 W/m 0,5 km/h (0 Bft)
07.11.2011 05:00 7,4 C 99 % 1012,3 hPa 0,0 l/m N 0,00 h 0 W/m 0,5 km/h (0 Bft)
07.11.2011 06:00 7,4 C 99 % 1012,3 hPa 0,2 l/m N 0,00 h 0 W/m 0,7 km/h (0 Bft)
07.11.2011 07:00 7,4 C 99 % 1012,5 hPa 0,0 l/m NO 0,00 h 7 W/m 0,7 km/h (0 Bft)
07.11.2011 08:00 7,6 C 99 % 1013,3 hPa 0,0 l/m N 0,00 h 13 W/m 0,8 km/h (0 Bft)
07.11.2011 09:00 7,8 C 99 % 1013,2 hPa 0,0 l/m N 0,00 h 22 W/m 1,7 km/h (1 Bft)
07.11.2011 10:00 8,3 C 99 % 1013,2 hPa 0,0 l/m NO 0,00 h 57 W/m 2,4 km/h (1 Bft)
07.11.2011 11:00 8,9 C 97 % 1013,3 hPa 0,0 l/m NO 0,00 h 47 W/m 1,6 km/h (1 Bft)
07.11.2011 12:00 9,3 C 96 % 1013,4 hPa 0,0 l/m O-NO 0,00 h 57 W/m 2,5 km/h (1 Bft)
07.11.2011 13:00 9,7 C 96 % 1013,5 hPa 0,0 l/m O-SO 0,00 h 43 W/m 3,9 km/h (1 Bft)
07.11.2011 14:00 10,0 C 96 % 1013,4 hPa 0,0 l/m N 0,00 h 78 W/m 1,9 km/h (1 Bft)
07.11.2011 15:00 10,2 C 95 % 1013,6 hPa 0,0 l/m O-SO 0,00 h 18 W/m 2,9 km/h (1 Bft)
07.11.2011 16:00 10,2 C 95 % 1013,8 hPa 0,0 l/m O-SO 0,00 h 10 W/m 1,3 km/h (1 Bft)
07.11.2011 17:00 10,1 C 95 % 1014,2 hPa 0,0 l/m N 0,00 h 0 W/m 0,5 km/h (0 Bft)
07.11.2011 18:00 9,9 C 96 % 1014,7 hPa 0,0 l/m N 0,00 h 0 W/m 0,0 km/h (0 Bft)
07.11.2011 19:00 9,7 C 96 % 1014,9 hPa 0,0 l/m N 0,00 h 0 W/m 0,8 km/h (0 Bft)
07.11.2011 20:00 9,0 C 95 % 1014,9 hPa 0,0 l/m N 0,00 h 0 W/m 1,9 km/h (1 Bft)
07.11.2011 21:00 8,1 C 96 % 1015,2 hPa 0,0 l/m O-SO 0,00 h 0 W/m 2,1 km/h (1 Bft)
07.11.2011 22:00 7,6 C 97 % 1015,6 hPa 0,0 l/m O-SO 0,00 h 0 W/m 3,6 km/h (1 Bft)
07.11.2011 23:00 6,9 C 97 % 1015,7 hPa 0,2 l/m O-SO 0,00 h 0 W/m 3,6 km/h (1 Bft)
08.11.2011 00:00 6,7 C 98 % 1015,7 hPa 0,0 l/m O-SO 0,00 h 0 W/m 1,1 km/h (0 Bft)
08.11.2011 01:00 7,1 C 98 % 1015,7 hPa 0,0 l/m O-NO 0,00 h 0 W/m 3,6 km/h (1 Bft)
08.11.2011 02:00 7,6 C 99 % 1015,6 hPa 0,0 l/m O-NO 0,00 h 0 W/m 7,5 km/h (2 Bft)
08.11.2011 03:00 7,4 C 99 % 1015,6 hPa 0,0 l/m O-NO 0,00 h 0 W/m 6,5 km/h (2 Bft)
08.11.2011 04:00 7,3 C 99 % 1015,6 hPa 0,0 l/m O-NO 0,00 h 0 W/m 6,9 km/h (2 Bft)
08.11.2011 05:00 6,9 C 99 % 1015,5 hPa 0,0 l/m O-NO 0,00 h 0 W/m 7,5 km/h (2 Bft)
08.11.2011 06:00 6,6 C 99 % 1015,3 hPa 0,0 l/m O-NO 0,00 h 0 W/m 7,9 km/h (2 Bft)
08.11.2011 07:00 6,4 C 99 % 1015,3 hPa 0,0 l/m O-NO 0,00 h 5 W/m 8,3 km/h (2 Bft)
08.11.2011 08:00 6,4 C 99 % 1015,6 hPa 0,0 l/m O 0,00 h 11 W/m 7,4 km/h (2 Bft)
08.11.2011 09:00 6,4 C 99 % 1015,6 hPa 0,0 l/m O-NO 0,00 h 56 W/m 7,6 km/h (2 Bft)
08.11.2011 10:00 6,9 C 98 % 1015,5 hPa 0,0 l/m O 0,00 h 56 W/m 8,2 km/h (2 Bft)
08.11.2011 11:00 7,2 C 97 % 1015,5 hPa 0,0 l/m NO 0,00 h 85 W/m 8,3 km/h (2 Bft)
08.11.2011 12:00 7,6 C 95 % 1015,6 hPa 0,0 l/m O-SO 0,00 h 91 W/m 8,0 km/h (2 Bft)
08.11.2011 13:00 7,6 C 95 % 1015,5 hPa 0,0 l/m O 0,00 h 55 W/m 7,6 km/h (2 Bft)
08.11.2011 14:00 7,4 C 96 % 1015,7 hPa 0,0 l/m O 0,00 h 66 W/m 6,0 km/h (2 Bft)
08.11.2011 15:00 7,8 C 95 % 1016,1 hPa 0,0 l/m N 0,00 h 42 W/m 6,3 km/h (2 Bft)
08.11.2011 16:00 7,5 C 95 % 1016,4 hPa 0,0 l/m N 0,00 h 12 W/m 5,2 km/h (1 Bft)
08.11.2011 17:00 7,2 C 95 % 1016,7 hPa 0,0 l/m N 0,00 h 0 W/m 4,3 km/h (1 Bft)
08.11.2011 18:00 6,9 C 96 % 1017,2 hPa 0,0 l/m N 0,00 h 0 W/m 2,7 km/h (1 Bft)
08.11.2011 19:00 6,8 C 97 % 1017,4 hPa 0,0 l/m N 0,00 h 0 W/m 0,9 km/h (0 Bft)
08.11.2011 20:00 6,8 C 97 % 1017,4 hPa 0,0 l/m N 0,00 h 0 W/m 1,5 km/h (1 Bft)
08.11.2011 21:00 6,8 C 98 % 1017,6 hPa 0,0 l/m N 0,00 h 0 W/m 2,0 km/h (1 Bft)
08.11.2011 22:00 6,5 C 98 % 1017,6 hPa 0,0 l/m N 0,00 h 0 W/m 4,0 km/h (1 Bft)
08.11.2011 23:00 6,2 C 98 % 1017,9 hPa 0,0 l/m N 0,00 h 0 W/m 2,8 km/h (1 Bft)
09.11.2011 00:00 5,9 C 98 % 1018,0 hPa 0,0 l/m N 0,00 h 0 W/m 1,9 km/h (1 Bft)
09.11.2011 01:00 5,6 C 98 % 1018,2 hPa 0,0 l/m N 0,00 h 0 W/m 0,7 km/h (0 Bft)
09.11.2011 02:00 5,4 C 98 % 1018,7 hPa 0,0 l/m N 0,00 h 0 W/m 1,2 km/h (1 Bft)
09.11.2011 03:00 5,4 C 99 % 1018,9 hPa 0,0 l/m N 0,00 h 0 W/m 1,3 km/h (1 Bft)
09.11.2011 04:00 5,4 C 99 % 1019,1 hPa 0,0 l/m N-NW 0,00 h 0 W/m 4,3 km/h (1 Bft)
09.11.2011 05:00 5,0 C 99 % 1019,5 hPa 0,0 l/m N-NW 0,00 h 0 W/m 3,2 km/h (1 Bft)
09.11.2011 06:00 4,6 C 99 % 1019,6 hPa 0,0 l/m N-NW 0,00 h 0 W/m 3,3 km/h (1 Bft)
09.11.2011 07:00 4,3 C 99 % 1019,9 hPa 0,0 l/m N 0,00 h 9 W/m 2,7 km/h (1 Bft)
09.11.2011 08:00 4,3 C 99 % 1020,5 hPa 0,0 l/m N-NW 0,00 h 27 W/m 2,8 km/h (1 Bft)
09.11.2011 09:00 4,5 C 99 % 1020,9 hPa 0,0 l/m N-NW 0,00 h 54 W/m 4,9 km/h (1 Bft)
09.11.2011 10:00 5,0 C 99 % 1021,3 hPa 0,0 l/m NW 0,00 h 87 W/m 6,1 km/h (2 Bft)
09.11.2011 11:00 5,9 C 99 % 1021,1 hPa 0,0 l/m NW 0,25 h 186 W/m 3,3 km/h (1 Bft)
09.11.2011 12:00 8,3 C 95 % 1020,4 hPa 0,0 l/m NW 0,83 h 395 W/m 5,1 km/h (1 Bft)
09.11.2011 13:00 10,6 C 85 % 1020,1 hPa 0,0 l/m NW 1,00 h 373 W/m 5,7 km/h (1 Bft)
09.11.2011 14:00 11,6 C 80 % 1019,9 hPa 0,0 l/m NW 1,00 h 280 W/m 4,9 km/h (1 Bft)
09.11.2011 15:00 10,9 C 85 % 1020,0 hPa 0,0 l/m NW 0,92 h 130 W/m 7,4 km/h (2 Bft)
09.11.2011 16:00 10,3 C 86 % 1020,0 hPa 0,0 l/m NW 0,08 h 20 W/m 5,6 km/h (1 Bft)
09.11.2011 17:00 8,5 C 88 % 1020,4 hPa 0,0 l/m N 0,00 h 0 W/m 2,7 km/h (1 Bft)
09.11.2011 18:00 7,0 C 91 % 1020,7 hPa 0,0 l/m N 0,00 h 0 W/m 2,1 km/h (1 Bft)
09.11.2011 19:00 5,8 C 92 % 1021,0 hPa 0,0 l/m N 0,00 h 0 W/m 1,6 km/h (1 Bft)
09.11.2011 20:00 4,8 C 93 % 1021,4 hPa 0,0 l/m NW 0,00 h 0 W/m 2,7 km/h (1 Bft)
09.11.2011 21:00 4,1 C 94 % 1021,6 hPa 0,0 l/m NW 0,00 h 0 W/m 6,7 km/h (2 Bft)
09.11.2011 22:00 3,4 C 96 % 1021,6 hPa 0,0 l/m N-NW 0,00 h 0 W/m 6,5 km/h (2 Bft)
09.11.2011 23:00 3,3 C 97 % 1021,5 hPa 0,2 l/m N 0,00 h 0 W/m 3,6 km/h (1 Bft)
10.11.2011 00:00 2,9 C 97 % 1021,4 hPa 0,0 l/m N 0,00 h 0 W/m 1,6 km/h (1 Bft)
10.11.2011 01:00 2,9 C 98 % 1021,1 hPa 0,0 l/m N 0,00 h 0 W/m 1,2 km/h (1 Bft)
10.11.2011 02:00 3,2 C 98 % 1021,0 hPa 0,0 l/m N-NW 0,00 h 0 W/m 3,5 km/h (1 Bft)
10.11.2011 03:00 3,0 C 98 % 1020,6 hPa 0,0 l/m N 0,00 h 0 W/m 1,6 km/h (1 Bft)
10.11.2011 04:00 2,8 C 98 % 1020,7 hPa 0,0 l/m N-NW 0,00 h 0 W/m 3,3 km/h (1 Bft)
10.11.2011 05:00 2,4 C 98 % 1021,0 hPa 0,0 l/m N-NW 0,00 h 0 W/m 3,9 km/h (1 Bft)
10.11.2011 06:00 2,2 C 98 % 1021,0 hPa 0,0 l/m N-NW 0,00 h 0 W/m 3,9 km/h (1 Bft)
10.11.2011 07:00 1,8 C 98 % 1021,3 hPa 0,0 l/m N-NW 0,00 h 8 W/m 4,1 km/h (1 Bft)
10.11.2011 08:00 1,8 C 99 % 1021,4 hPa 0,2 l/m N-NW 0,00 h 23 W/m 2,9 km/h (1 Bft)
10.11.2011 09:00 2,2 C 99 % 1021,5 hPa 0,0 l/m N 0,00 h 44 W/m 2,0 km/h (1 Bft)
10.11.2011 10:00 2,6 C 99 % 1021,6 hPa 0,0 l/m N 0,00 h 62 W/m 2,5 km/h (1 Bft)
10.11.2011 11:00 2,8 C 99 % 1021,5 hPa 0,0 l/m N-NW 0,00 h 81 W/m 3,7 km/h (1 Bft)
10.11.2011 12:00 3,3 C 99 % 1021,3 hPa 0,0 l/m N-NW 0,00 h 69 W/m 3,5 km/h (1 Bft)
10.11.2011 13:00 3,7 C 99 % 1021,1 hPa 0,0 l/m N-NW 0,00 h 59 W/m 4,0 km/h (1 Bft)
10.11.2011 14:00 3,8 C 99 % 1021,0 hPa 0,0 l/m N-NO 0,00 h 44 W/m 6,0 km/h (2 Bft)
10.11.2011 15:00 3,8 C 99 % 1021,0 hPa 0,0 l/m O 0,00 h 19 W/m 6,4 km/h (2 Bft)
10.11.2011 16:00 3,6 C 99 % 1021,1 hPa 0,0 l/m O 0,00 h 7 W/m 9,1 km/h (2 Bft)
10.11.2011 17:00 3,5 C 99 % 1021,4 hPa 0,0 l/m O 0,00 h 0 W/m 7,8 km/h (2 Bft)
10.11.2011 18:00 3,5 C 99 % 1021,4 hPa 0,0 l/m O-NO 0,00 h 0 W/m 6,4 km/h (2 Bft)
10.11.2011 19:00 3,7 C 99 % 1021,3 hPa 0,0 l/m O-NO 0,00 h 0 W/m 5,3 km/h (1 Bft)
10.11.2011 20:00 3,7 C 99 % 1021,4 hPa 0,0 l/m O-NO 0,00 h 0 W/m 7,2 km/h (2 Bft)
10.11.2011 21:00 3,4 C 99 % 1021,6 hPa 0,0 l/m O 0,00 h 0 W/m 7,6 km/h (2 Bft)
10.11.2011 22:00 3,5 C 99 % 1021,7 hPa 0,0 l/m O 0,00 h 0 W/m 8,2 km/h (2 Bft)
10.11.2011 23:00 3,8 C 99 % 1021,7 hPa 0,0 l/m O 0,00 h 0 W/m 10,1 km/h (2 Bft)
11.11.2011 00:00 3,8 C 99 % 1021,5 hPa 0,0 l/m O-NO 0,00 h 0 W/m 8,3 km/h (2 Bft)
11.11.2011 01:00 3,7 C 99 % 1021,6 hPa 0,0 l/m O 0,00 h 0 W/m 11,5 km/h (2 Bft)
11.11.2011 02:00 3,7 C 99 % 1021,5 hPa 0,0 l/m O-NO 0,00 h 0 W/m 10,7 km/h (2 Bft)
11.11.2011 03:00 3,7 C 99 % 1021,4 hPa 0,0 l/m O 0,00 h 0 W/m 5,7 km/h (1 Bft)
11.11.2011 04:00 3,9 C 99 % 1021,3 hPa 0,0 l/m O 0,00 h 0 W/m 5,5 km/h (1 Bft)
11.11.2011 05:00 4,0 C 99 % 1021,2 hPa 0,0 l/m N 0,00 h 0 W/m 3,3 km/h (1 Bft)
11.11.2011 06:00 4,2 C 99 % 1021,3 hPa 0,0 l/m O 0,00 h 0 W/m 4,5 km/h (1 Bft)
11.11.2011 07:00 4,3 C 99 % 1021,8 hPa 0,0 l/m O 0,00 h 6 W/m 4,2 km/h (1 Bft)
11.11.2011 08:00 4,6 C 99 % 1022,1 hPa 0,0 l/m O 0,00 h 11 W/m 2,8 km/h (1 Bft)
11.11.2011 09:00 4,7 C 99 % 1022,4 hPa 0,0 l/m O 0,00 h 22 W/m 12,4 km/h (3 Bft)
11.11.2011 10:00 4,4 C 99 % 1022,7 hPa 0,0 l/m O 0,00 h 42 W/m 12,6 km/h (3 Bft)
11.11.2011 11:00 3,8 C 97 % 1022,6 hPa 0,0 l/m O-NO 0,00 h 42 W/m 13,2 km/h (3 Bft)
11.11.2011 12:00 3,6 C 97 % 1022,7 hPa 0,0 l/m O 0,00 h 46 W/m 10,9 km/h (2 Bft)
11.11.2011 13:00 3,6 C 97 % 1022,7 hPa 0,0 l/m O-NO 0,00 h 41 W/m 10,5 km/h (2 Bft)
11.11.2011 14:00 3,7 C 97 % 1022,7 hPa 0,0 l/m O 0,00 h 36 W/m 9,6 km/h (2 Bft)
11.11.2011 15:00 3,7 C 97 % 1023,1 hPa 0,0 l/m O 0,00 h 14 W/m 6,7 km/h (2 Bft)
11.11.2011 16:00 3,8 C 97 % 1023,3 hPa 0,0 l/m O 0,00 h 6 W/m 7,7 km/h (2 Bft)
11.11.2011 17:00 3,8 C 96 % 1023,6 hPa 0,0 l/m O 0,00 h 0 W/m 8,3 km/h (2 Bft)
11.11.2011 18:00 3,7 C 96 % 1024,1 hPa 0,0 l/m O-NO 0,00 h 0 W/m 6,7 km/h (2 Bft)
11.11.2011 19:00 3,7 C 97 % 1024,6 hPa 0,0 l/m O-NO 0,00 h 0 W/m 6,3 km/h (2 Bft)
11.11.2011 20:00 3,7 C 97 % 1025,1 hPa 0,0 l/m O-NO 0,00 h 0 W/m 4,1 km/h (1 Bft)
11.11.2011 21:00 3,8 C 97 % 1025,7 hPa 0,0 l/m O-NO 0,00 h 0 W/m 2,5 km/h (1 Bft)
11.11.2011 22:00 3,8 C 97 % 1026,0 hPa 0,0 l/m N 0,00 h 0 W/m 2,3 km/h (1 Bft)
11.11.2011 23:00 3,9 C 96 % 1026,4 hPa 0,0 l/m N 0,00 h 0 W/m 0,1 km/h (0 Bft)
12.11.2011 00:00 4,0 C 96 % 1027,0 hPa 0,0 l/m O-NO 0,00 h 0 W/m 1,6 km/h (1 Bft)
12.11.2011 01:00 4,1 C 96 % 1027,4 hPa 0,0 l/m W-SW 0,00 h 0 W/m 5,9 km/h (2 Bft)
12.11.2011 02:00 4,1 C 96 % 1028,0 hPa 0,0 l/m W-SW 0,00 h 0 W/m 9,0 km/h (2 Bft)
12.11.2011 03:00 4,1 C 97 % 1028,3 hPa 0,0 l/m W-SW 0,00 h 0 W/m 9,0 km/h (2 Bft)
12.11.2011 04:00 4,2 C 97 % 1028,8 hPa 0,0 l/m SW 0,00 h 0 W/m 9,9 km/h (2 Bft)
12.11.2011 05:00 4,2 C 97 % 1029,2 hPa 0,0 l/m W-SW 0,00 h 0 W/m 9,5 km/h (2 Bft)
12.11.2011 06:00 4,3 C 97 % 1029,5 hPa 0,0 l/m W-SW 0,00 h 0 W/m 9,8 km/h (2 Bft)
12.11.2011 07:00 4,3 C 98 % 1030,2 hPa 0,0 l/m W-SW 0,00 h 7 W/m 6,1 km/h (2 Bft)
12.11.2011 08:00 4,5 C 98 % 1030,8 hPa 0,0 l/m SW 0,00 h 23 W/m 6,8 km/h (2 Bft)
12.11.2011 09:00 4,8 C 98 % 1031,3 hPa 0,0 l/m SW 0,00 h 49 W/m 7,4 km/h (2 Bft)
12.11.2011 10:00 5,0 C 98 % 1031,6 hPa 0,0 l/m SW 0,00 h 62 W/m 4,7 km/h (1 Bft)
12.11.2011 11:00 5,8 C 97 % 1031,5 hPa 0,0 l/m SW 0,00 h 145 W/m 4,1 km/h (1 Bft)
12.11.2011 12:00 6,5 C 94 % 1031,1 hPa 0,0 l/m SW 0,17 h 192 W/m 3,2 km/h (1 Bft)
12.11.2011 13:00 8,6 C 87 % 1030,7 hPa 0,0 l/m SW 1,00 h 350 W/m 5,1 km/h (1 Bft)
12.11.2011 14:00 10,1 C 83 % 1030,4 hPa 0,0 l/m N-NW 1,00 h 261 W/m 7,5 km/h (2 Bft)
12.11.2011 15:00 10,1 C 83 % 1030,5 hPa 0,0 l/m N-NO 0,50 h 107 W/m 9,0 km/h (2 Bft)
12.11.2011 16:00 9,2 C 85 % 1030,8 hPa 0,0 l/m N-NO 0,08 h 19 W/m 8,2 km/h (2 Bft)
12.11.2011 17:00 7,2 C 89 % 1031,0 hPa 0,0 l/m N-NO 0,00 h 0 W/m 8,9 km/h (2 Bft)
12.11.2011 18:00 6,0 C 94 % 1031,4 hPa 0,0 l/m N-NO 0,00 h 0 W/m 9,5 km/h (2 Bft)
12.11.2011 19:00 5,6 C 96 % 1031,7 hPa 0,0 l/m N-NO 0,00 h 0 W/m 9,8 km/h (2 Bft)
12.11.2011 20:00 5,2 C 97 % 1031,6 hPa 0,0 l/m N-NO 0,00 h 0 W/m 9,1 km/h (2 Bft)
12.11.2011 21:00 4,8 C 97 % 1031,8 hPa 0,0 l/m N-NO 0,00 h 0 W/m 8,6 km/h (2 Bft)
12.11.2011 22:00 4,4 C 97 % 1031,7 hPa 0,0 l/m O-NO 0,00 h 0 W/m 8,6 km/h (2 Bft)
12.11.2011 23:00 4,0 C 97 % 1031,8 hPa 0,0 l/m NO 0,00 h 0 W/m 9,3 km/h (2 Bft)
13.11.2011 00:00 3,6 C 98 % 1031,6 hPa 0,0 l/m NO 0,00 h 0 W/m 8,2 km/h (2 Bft)
13.11.2011 01:00 3,3 C 98 % 1031,2 hPa 0,0 l/m O-NO 0,00 h 0 W/m 8,3 km/h (2 Bft)
13.11.2011 02:00 3,1 C 98 % 1031,1 hPa 0,0 l/m NO 0,00 h 0 W/m 10,1 km/h (2 Bft)
13.11.2011 03:00 2,9 C 98 % 1030,6 hPa 0,0 l/m O-NO 0,00 h 0 W/m 8,3 km/h (2 Bft)
13.11.2011 04:00 2,9 C 98 % 1030,6 hPa 0,0 l/m NO 0,00 h 0 W/m 8,8 km/h (2 Bft)
13.11.2011 05:00 2,9 C 99 % 1030,8 hPa 0,0 l/m NO 0,00 h 0 W/m 8,9 km/h (2 Bft)
13.11.2011 06:00 2,6 C 99 % 1031,0 hPa 0,0 l/m O-NO 0,00 h 0 W/m 9,2 km/h (2 Bft)
13.11.2011 07:00 2,3 C 99 % 1031,5 hPa 0,0 l/m O-NO 0,00 h 6 W/m 6,1 km/h (2 Bft)
13.11.2011 08:00 2,2 C 99 % 1031,8 hPa 0,0 l/m O 0,00 h 14 W/m 3,3 km/h (1 Bft)
13.11.2011 09:00 2,4 C 99 % 1032,1 hPa 0,0 l/m O-SO 0,00 h 28 W/m 3,5 km/h (1 Bft)
13.11.2011 10:00 2,4 C 99 % 1032,2 hPa 0,0 l/m S-SO 0,00 h 46 W/m 2,7 km/h (1 Bft)
13.11.2011 11:00 2,5 C 99 % 1031,8 hPa 0,0 l/m N 0,00 h 50 W/m 2,3 km/h (1 Bft)
13.11.2011 12:00 2,8 C 99 % 1031,4 hPa 0,0 l/m N 0,00 h 52 W/m 1,9 km/h (1 Bft)
13.11.2011 13:00 3,0 C 99 % 1031,2 hPa 0,0 l/m N 0,00 h 44 W/m 3,1 km/h (1 Bft)
13.11.2011 14:00 3,2 C 98 % 1031,1 hPa 0,0 l/m O-SO 0,00 h 29 W/m 2,7 km/h (1 Bft)
13.11.2011 15:00 3,0 C 98 % 1031,4 hPa 0,0 l/m O-SO 0,00 h 15 W/m 2,9 km/h (1 Bft)
13.11.2011 16:00 2,8 C 98 % 1031,4 hPa 0,0 l/m N 0,00 h 6 W/m 1,6 km/h (1 Bft)
13.11.2011 17:00 2,5 C 98 % 1031,4 hPa 0,0 l/m N 0,00 h 0 W/m 1,5 km/h (1 Bft)
13.11.2011 18:00 2,3 C 98 % 1031,3 hPa 0,0 l/m N 0,00 h 0 W/m 1,5 km/h (1 Bft)
13.11.2011 19:00 2,2 C 98 % 1031,2 hPa 0,0 l/m O-SO 0,00 h 0 W/m 1,9 km/h (1 Bft)
13.11.2011 20:00 2,1 C 98 % 1030,8 hPa 0,0 l/m N 0,00 h 0 W/m 2,4 km/h (1 Bft)
13.11.2011 21:00 1,9 C 98 % 1030,5 hPa 0,0 l/m O-SO 0,00 h 0 W/m 2,4 km/h (1 Bft)
13.11.2011 22:00 1,8 C 98 % 1030,2 hPa 0,0 l/m N 0,00 h 0 W/m 2,5 km/h (1 Bft)
13.11.2011 23:00 1,6 C 98 % 1029,9 hPa 0,0 l/m N 0,00 h 0 W/m 2,8 km/h (1 Bft)
Min-Datum _ 13.11.11 09.11.11 07.11.11 - - - - 07.11.11
_ Min-Zeit 23:15 14:35 00:05 - - - - 03:10
Minimum _ 1,6 C 78 % 1010,9 hPa - - - - 0,0 km/h (0 Bft)
Max-Datum _ 09.11.11 07.11.11 13.11.11 07.11.11 - 09.11.11 09.11.11 11.11.11
_ Max-Zeit 14:40 10:10 09:25 06:05 - 11:35 12:10 10:05
Maximum _ 11,9 C 100 % 1032,3 hPa 0,2 l/m - 0,08 h 418 W/m 17,7 km/h
O (3 Bft)
Durchschnitt _ 5,3 C 97 % 1022,2 hPa #0,8 l/m O-NO #6:50 h 65 W/m 5,1 km/h (1 Bft)